createdAt,value
2022-10-17T00:00:20.871Z,86.06
2022-10-17T00:01:52.498Z,85.90
2022-10-17T00:03:24.235Z,85.73
2022-10-17T00:04:55.831Z,85.68
2022-10-17T00:06:28.830Z,85.56
2022-10-17T00:08:00.468Z,85.72
2022-10-17T00:09:32.124Z,85.47
2022-10-17T00:11:05.887Z,85.44
2022-10-17T00:12:37.531Z,85.53
2022-10-17T00:14:09.177Z,85.98
2022-10-17T00:15:44.404Z,85.38
2022-10-17T00:17:16.204Z,85.51
2022-10-17T00:18:47.834Z,85.67
2022-10-17T00:20:19.678Z,85.67
2022-10-17T00:21:52.725Z,85.55
2022-10-17T00:23:26.047Z,85.90
2022-10-17T00:24:57.668Z,85.75
2022-10-17T00:26:32.285Z,85.61
2022-10-17T00:28:04.205Z,85.77
2022-10-17T00:29:35.812Z,86.03
2022-10-17T00:31:07.559Z,85.99
2022-10-17T00:32:39.725Z,86.08
2022-10-17T00:34:11.395Z,85.87
2022-10-17T00:35:42.974Z,85.90
2022-10-17T00:37:16.544Z,86.16
2022-10-17T00:38:51.878Z,86.18
2022-10-17T00:40:23.906Z,86.25
2022-10-17T00:41:55.487Z,86.19
2022-10-17T00:43:27.883Z,86.40
2022-10-17T00:45:14.804Z,86.26
2022-10-17T00:46:47.691Z,86.62
2022-10-17T00:48:22.646Z,86.50
2022-10-17T00:49:55.087Z,86.64
2022-10-17T00:51:32.890Z,86.44
2022-10-17T00:53:09.356Z,86.50
2022-10-17T00:54:44.462Z,86.79
2022-10-17T00:56:17.068Z,87.09
2022-10-17T00:57:48.990Z,86.94
2022-10-17T00:59:23.085Z,86.90
2022-10-17T01:00:54.702Z,86.92
2022-10-17T01:02:26.766Z,87.06
2022-10-17T01:03:58.876Z,87.29
2022-10-17T01:05:30.822Z,87.54
2022-10-17T01:07:02.527Z,87.34
2022-10-17T01:08:35.863Z,87.45
2022-10-17T01:10:09.050Z,87.38
2022-10-17T01:11:49.841Z,87.48
2022-10-17T01:13:27.967Z,87.42
2022-10-17T01:15:11.066Z,87.35
2022-10-17T01:16:49.057Z,87.22
2022-10-17T01:18:36.828Z,87.35
2022-10-17T01:20:41.682Z,87.33
2022-10-17T01:22:22.297Z,87.60
2022-10-17T01:24:32.602Z,87.64
2022-10-17T01:26:19.100Z,87.86
2022-10-17T01:28:10.241Z,87.65
2022-10-17T01:30:00.157Z,87.56
2022-10-17T01:31:38.891Z,87.87
2022-10-17T01:33:14.861Z,87.48
2022-10-17T01:34:53.800Z,87.81
2022-10-17T01:36:36.335Z,87.62
2022-10-17T01:38:13.048Z,87.62
2022-10-17T01:39:50.753Z,87.30
2022-10-17T01:41:32.503Z,87.17
2022-10-17T01:43:11.657Z,87.42
2022-10-17T01:44:48.270Z,86.95
2022-10-17T01:46:25.006Z,86.91
2022-10-17T01:48:03.140Z,86.99
2022-10-17T01:49:37.527Z,87.03
2022-10-17T01:51:13.552Z,86.86
2022-10-17T01:52:50.548Z,87.15
2022-10-17T01:54:26.507Z,87.29
2022-10-17T01:56:01.082Z,87.11
2022-10-17T01:57:37.914Z,86.79
2022-10-17T01:59:13.647Z,87.20
2022-10-17T02:00:46.749Z,86.88
2022-10-17T02:02:20.578Z,87.10
2022-10-17T02:03:57.305Z,86.84
2022-10-17T02:05:33.517Z,86.88
2022-10-17T02:07:08.455Z,86.93
2022-10-17T02:08:43.224Z,86.88
2022-10-17T02:10:25.521Z,86.87
2022-10-17T02:12:11.651Z,87.06
2022-10-17T02:14:06.659Z,86.92
2022-10-17T02:15:54.792Z,87.29
2022-10-17T02:17:38.724Z,87.41
2022-10-17T02:19:28.253Z,87.28
2022-10-17T02:21:06.933Z,87.39
2022-10-17T02:22:49.217Z,87.41
2022-10-17T02:24:30.198Z,87.56
2022-10-17T02:26:10.328Z,87.57
2022-10-17T02:27:48.760Z,87.68
2022-10-17T02:29:26.460Z,87.74
2022-10-17T02:31:02.533Z,87.31
2022-10-17T02:32:40.114Z,87.18
2022-10-17T02:34:18.354Z,87.41
2022-10-17T02:35:54.918Z,87.04
2022-10-17T02:37:30.198Z,86.76
2022-10-17T02:39:04.161Z,86.86
2022-10-17T02:40:37.316Z,86.69
2022-10-17T02:42:11.908Z,86.75
2022-10-17T02:43:45.727Z,86.74
2022-10-17T02:45:17.993Z,86.68
2022-10-17T02:46:56.642Z,86.66
2022-10-17T02:48:35.514Z,86.76
2022-10-17T02:50:09.291Z,86.58
2022-10-17T02:51:47.412Z,86.83
2022-10-17T02:53:29.351Z,86.83
2022-10-17T02:55:06.206Z,86.98
2022-10-17T02:56:43.560Z,87.21
2022-10-17T02:58:21.272Z,87.22
2022-10-17T02:59:54.503Z,87.02
2022-10-17T03:01:31.754Z,86.96
2022-10-17T03:03:18.962Z,86.78
2022-10-17T03:04:50.631Z,87.02
2022-10-17T03:06:23.602Z,87.20
2022-10-17T03:07:56.266Z,87.22
2022-10-17T03:09:29.848Z,86.84
2022-10-17T03:11:02.547Z,87.21
2022-10-17T03:12:34.952Z,87.20
2022-10-17T03:14:06.700Z,87.06
2022-10-17T03:15:38.310Z,86.83
2022-10-17T03:17:09.989Z,87.05
2022-10-17T03:18:44.354Z,87.24
2022-10-17T03:20:18.268Z,86.88
2022-10-17T03:21:51.791Z,86.60
2022-10-17T03:23:23.460Z,86.70
2022-10-17T03:24:55.307Z,86.58
2022-10-17T03:26:27.051Z,86.78
2022-10-17T03:28:00.427Z,86.72
2022-10-17T03:29:32.221Z,86.71
2022-10-17T03:31:07.548Z,86.84
2022-10-17T03:32:39.288Z,86.74
2022-10-17T03:34:10.978Z,87.05
2022-10-17T03:35:42.879Z,87.00
2022-10-17T03:37:16.366Z,86.91
2022-10-17T03:38:49.134Z,86.79
2022-10-17T03:40:22.289Z,86.95
2022-10-17T03:41:53.973Z,87.00
2022-10-17T03:43:25.642Z,87.11
2022-10-17T03:44:57.265Z,87.01
2022-10-17T03:46:29.195Z,87.03
2022-10-17T03:48:02.521Z,87.07
2022-10-17T03:49:35.160Z,86.97
2022-10-17T03:51:08.680Z,86.96
2022-10-17T03:52:48.441Z,87.16
2022-10-17T03:54:20.089Z,87.19
2022-10-17T03:55:51.973Z,87.28
2022-10-17T03:57:23.748Z,87.00
2022-10-17T03:58:56.064Z,86.97
2022-10-17T04:00:27.713Z,86.95
2022-10-17T04:02:02.964Z,87.01
2022-10-17T04:03:34.645Z,86.57
2022-10-17T04:05:08.200Z,86.62
2022-10-17T04:06:39.961Z,87.05
2022-10-17T04:08:13.136Z,87.00
2022-10-17T04:10:03.781Z,86.77
2022-10-17T04:11:36.049Z,86.79
2022-10-17T04:13:08.533Z,86.91
2022-10-17T04:14:40.213Z,86.63
2022-10-17T04:16:14.668Z,86.62
2022-10-17T04:17:54.519Z,86.43
2022-10-17T04:19:26.891Z,86.45
2022-10-17T04:21:01.499Z,86.35
2022-10-17T04:22:33.250Z,86.24
2022-10-17T04:24:06.909Z,86.47
2022-10-17T04:26:16.847Z,86.42
2022-10-17T04:27:49.119Z,86.27
2022-10-17T04:29:21.727Z,86.28
2022-10-17T04:30:57.269Z,86.27
2022-10-17T04:32:29.346Z,86.42
2022-10-17T04:34:14.130Z,86.47
2022-10-17T04:35:55.448Z,86.02
2022-10-17T04:37:29.138Z,86.21
2022-10-17T04:39:03.420Z,86.09
2022-10-17T04:40:36.729Z,86.14
2022-10-17T04:42:09.272Z,86.05
2022-10-17T04:43:43.424Z,86.12
2022-10-17T04:45:16.252Z,86.01
2022-10-17T04:46:48.376Z,85.81
2022-10-17T04:48:20.478Z,85.90
2022-10-17T04:49:53.571Z,86.02
2022-10-17T04:51:27.209Z,85.83
2022-10-17T04:53:14.773Z,86.08
2022-10-17T04:54:46.467Z,85.77
2022-10-17T04:56:22.284Z,86.03
2022-10-17T04:57:54.377Z,85.75
2022-10-17T04:59:26.451Z,85.58
2022-10-17T05:01:12.104Z,85.59
2022-10-17T05:02:45.868Z,85.51
2022-10-17T05:04:19.940Z,85.23
2022-10-17T05:05:55.551Z,85.05
2022-10-17T05:07:27.556Z,84.94
2022-10-17T05:09:07.777Z,85.04
2022-10-17T05:10:41.261Z,84.85
2022-10-17T05:12:14.284Z,84.64
2022-10-17T05:13:52.764Z,84.49
2022-10-17T05:15:24.586Z,84.40
2022-10-17T05:16:58.240Z,84.47
2022-10-17T05:18:30.251Z,84.27
2022-10-17T05:20:01.863Z,84.54
2022-10-17T05:21:37.201Z,84.36
2022-10-17T05:23:09.688Z,84.52
2022-10-17T05:24:45.204Z,84.59
2022-10-17T05:26:17.493Z,84.59
2022-10-17T05:27:50.753Z,84.57
2022-10-17T05:29:22.962Z,84.61
2022-10-17T05:31:03.214Z,84.38
2022-10-17T05:32:35.910Z,84.30
2022-10-17T05:34:09.128Z,84.32
2022-10-17T05:35:43.462Z,84.41
2022-10-17T05:37:15.165Z,84.22
2022-10-17T05:38:52.058Z,84.22
2022-10-17T05:40:23.710Z,83.98
2022-10-17T05:41:57.684Z,83.90
2022-10-17T05:43:32.184Z,83.90
2022-10-17T05:45:04.660Z,83.95
2022-10-17T05:46:36.980Z,83.78
2022-10-17T05:48:09.350Z,83.63
2022-10-17T05:49:48.370Z,83.66
2022-10-17T05:51:24.757Z,83.77
2022-10-17T05:52:58.106Z,83.79
2022-10-17T05:54:29.720Z,83.60
2022-10-17T05:56:03.298Z,83.48
2022-10-17T05:57:36.452Z,83.63
2022-10-17T05:59:12.173Z,83.66
2022-10-17T06:01:07.085Z,83.73
2022-10-17T06:02:41.106Z,83.72
2022-10-17T06:04:14.258Z,83.68
2022-10-17T06:05:46.061Z,83.59
2022-10-17T06:07:17.701Z,83.47
2022-10-17T06:08:49.846Z,83.53
2022-10-17T06:10:26.602Z,83.45
2022-10-17T06:11:59.518Z,83.45
2022-10-17T06:13:31.240Z,83.18
2022-10-17T06:15:08.381Z,83.12
2022-10-17T06:16:40.214Z,83.14
2022-10-17T06:18:12.156Z,82.96
2022-10-17T06:19:44.840Z,83.00
2022-10-17T06:21:26.292Z,82.86
2022-10-17T06:23:05.344Z,82.83
2022-10-17T06:24:55.382Z,82.83
2022-10-17T06:26:27.917Z,82.91
2022-10-17T06:27:59.774Z,82.93
2022-10-17T06:29:32.230Z,82.83
2022-10-17T06:31:09.959Z,82.57
2022-10-17T06:32:41.692Z,82.59
2022-10-17T06:34:13.536Z,82.51
2022-10-17T06:35:51.733Z,82.50
2022-10-17T06:37:23.452Z,82.56
2022-10-17T06:38:55.135Z,82.28
2022-10-17T06:40:47.140Z,82.47
2022-10-17T06:42:18.806Z,82.38
2022-10-17T06:43:53.964Z,82.37
2022-10-17T06:45:46.137Z,82.33
2022-10-17T06:47:25.143Z,82.05
2022-10-17T06:49:01.060Z,82.17
2022-10-17T06:50:51.125Z,82.07
2022-10-17T06:52:31.995Z,82.14
2022-10-17T06:54:22.361Z,82.19
2022-10-17T06:56:10.371Z,82.14
2022-10-17T06:57:58.123Z,82.03
2022-10-17T06:59:46.960Z,81.97
2022-10-17T07:01:24.033Z,81.80
2022-10-17T07:03:01.059Z,81.77
2022-10-17T07:04:33.011Z,81.41
2022-10-17T07:06:05.375Z,81.30
2022-10-17T07:07:40.118Z,80.96
2022-10-17T07:09:14.965Z,80.94
2022-10-17T07:10:46.817Z,80.87
2022-10-17T07:12:18.440Z,80.85
2022-10-17T07:13:50.312Z,80.82
2022-10-17T07:15:22.213Z,80.62
2022-10-17T07:16:54.072Z,80.53
2022-10-17T07:18:30.141Z,80.38
2022-10-17T07:20:01.827Z,80.50
2022-10-17T07:21:38.955Z,80.20
2022-10-17T07:23:12.359Z,80.23
2022-10-17T07:24:44.034Z,80.02
2022-10-17T07:26:23.813Z,79.66
2022-10-17T07:27:55.929Z,79.81
2022-10-17T07:29:27.801Z,79.68
2022-10-17T07:31:24.242Z,79.60
2022-10-17T07:32:56.029Z,79.59
2022-10-17T07:34:31.289Z,79.49
2022-10-17T07:36:05.640Z,79.29
2022-10-17T07:37:38.169Z,79.15
2022-10-17T07:39:10.653Z,79.03
2022-10-17T07:40:43.400Z,78.80
2022-10-17T07:42:15.362Z,78.79
2022-10-17T07:43:47.027Z,78.84
2022-10-17T07:45:20.565Z,78.58
2022-10-17T07:46:52.307Z,78.42
2022-10-17T07:48:24.859Z,78.30
2022-10-17T07:49:58.003Z,78.16
2022-10-17T07:51:29.645Z,78.10
2022-10-17T07:53:01.263Z,77.75
2022-10-17T07:54:32.943Z,77.56
2022-10-17T07:56:06.591Z,77.43
2022-10-17T07:57:40.138Z,76.96
2022-10-17T07:59:11.752Z,76.87
2022-10-17T08:00:43.535Z,76.81
2022-10-17T08:02:20.867Z,76.32
2022-10-17T08:03:52.512Z,75.77
2022-10-17T08:05:25.556Z,75.38
2022-10-17T08:07:11.600Z,75.27
2022-10-17T08:08:49.015Z,74.78
2022-10-17T08:10:21.329Z,74.65
2022-10-17T08:11:53.996Z,74.27
2022-10-17T08:13:25.823Z,74.33
2022-10-17T08:14:57.455Z,73.72
2022-10-17T08:16:29.061Z,73.24
2022-10-17T08:18:00.745Z,73.05
2022-10-17T08:19:32.658Z,73.17
2022-10-17T08:21:08.251Z,72.67
2022-10-17T08:22:40.001Z,72.49
2022-10-17T08:24:11.645Z,72.11
2022-10-17T08:25:43.308Z,71.79
2022-10-17T08:27:15.015Z,72.20
2022-10-17T08:28:47.494Z,71.67
2022-10-17T08:30:19.201Z,71.66
2022-10-17T08:31:54.102Z,71.86
2022-10-17T08:33:30.240Z,71.89
2022-10-17T08:35:02.340Z,72.21
2022-10-17T08:36:35.368Z,71.74
2022-10-17T08:38:09.055Z,72.00
2022-10-17T08:39:43.225Z,72.22
2022-10-17T08:41:27.513Z,72.36
2022-10-17T08:43:27.117Z,72.30
2022-10-17T08:45:11.145Z,72.30
2022-10-17T08:46:47.765Z,72.12
2022-10-17T08:48:23.251Z,72.22
2022-10-17T08:49:59.264Z,72.20
2022-10-17T08:51:33.801Z,72.27
2022-10-17T08:53:15.880Z,71.81
2022-10-17T08:54:48.572Z,71.77
2022-10-17T08:56:44.018Z,71.90
2022-10-17T08:58:20.008Z,71.65
2022-10-17T08:59:53.476Z,71.29
2022-10-17T09:01:33.958Z,71.08
2022-10-17T09:03:18.684Z,71.13
2022-10-17T09:05:07.784Z,70.93
2022-10-17T09:06:45.443Z,70.81
2022-10-17T09:08:33.437Z,70.25
2022-10-17T09:10:11.994Z,69.81
2022-10-17T09:11:56.545Z,69.44
2022-10-17T09:13:45.884Z,69.46
2022-10-17T09:15:40.251Z,69.21
2022-10-17T09:17:23.999Z,69.07
2022-10-17T09:19:03.497Z,68.83
2022-10-17T09:20:41.481Z,68.70
2022-10-17T09:22:18.521Z,68.58
2022-10-17T09:23:59.703Z,68.33
2022-10-17T09:25:44.115Z,67.77
2022-10-17T09:27:22.083Z,67.88
2022-10-17T09:28:59.109Z,67.44
2022-10-17T09:30:45.037Z,67.22
2022-10-17T09:32:22.723Z,67.57
2022-10-17T09:33:57.283Z,67.80
2022-10-17T09:35:30.175Z,67.63
2022-10-17T09:37:02.940Z,68.09
2022-10-17T09:38:41.368Z,67.57
2022-10-17T09:40:22.017Z,67.20
2022-10-17T09:41:55.715Z,67.41
2022-10-17T09:43:28.108Z,67.28
2022-10-17T09:45:16.423Z,66.91
2022-10-17T09:47:15.396Z,66.98
2022-10-17T09:48:53.334Z,67.07
2022-10-17T09:50:28.669Z,66.87
2022-10-17T09:52:01.776Z,67.15
2022-10-17T09:53:36.569Z,67.15
2022-10-17T09:55:20.132Z,67.28
2022-10-17T09:56:59.847Z,67.09
2022-10-17T09:58:41.605Z,66.89
2022-10-17T10:00:21.259Z,67.27
2022-10-17T10:02:07.141Z,67.51
2022-10-17T10:03:38.804Z,67.83
2022-10-17T10:05:17.406Z,67.87
2022-10-17T10:07:02.752Z,68.01
2022-10-17T10:08:37.811Z,68.10
2022-10-17T10:10:29.996Z,68.19
2022-10-17T10:12:05.199Z,68.02
2022-10-17T10:13:36.921Z,68.13
2022-10-17T10:15:33.232Z,68.21
2022-10-17T10:17:06.807Z,68.08
2022-10-17T10:18:38.457Z,68.09
2022-10-17T10:20:29.583Z,67.96
2022-10-17T10:22:03.020Z,67.99
2022-10-17T10:23:39.880Z,67.84
2022-10-17T10:25:16.743Z,67.89
2022-10-17T10:26:50.937Z,67.77
2022-10-17T10:28:27.177Z,67.91
2022-10-17T10:29:59.295Z,67.73
2022-10-17T10:31:36.485Z,67.69
2022-10-17T10:33:12.170Z,67.70
2022-10-17T10:34:50.363Z,67.69
2022-10-17T10:36:23.290Z,67.77
2022-10-17T10:37:57.369Z,67.80
2022-10-17T10:39:43.303Z,67.65
2022-10-17T10:41:14.954Z,67.64
2022-10-17T10:42:50.524Z,67.98
2022-10-17T10:44:26.249Z,67.78
2022-10-17T10:45:58.270Z,67.87
2022-10-17T10:47:32.947Z,67.83
2022-10-17T10:49:05.038Z,67.88
2022-10-17T10:50:45.067Z,67.93
2022-10-17T10:52:25.099Z,67.80
2022-10-17T10:54:03.267Z,67.84
2022-10-17T10:55:40.245Z,67.97
2022-10-17T10:57:20.774Z,67.80
2022-10-17T10:58:57.704Z,67.94
2022-10-17T11:00:34.866Z,68.04
2022-10-17T11:02:15.795Z,67.85
2022-10-17T11:03:57.392Z,68.04
2022-10-17T11:05:41.156Z,68.13
2022-10-17T11:07:16.959Z,68.55
2022-10-17T11:08:52.436Z,68.85
2022-10-17T11:10:35.913Z,68.85
2022-10-17T11:12:14.739Z,68.73
2022-10-17T11:13:54.099Z,68.49
2022-10-17T11:15:35.029Z,68.68
2022-10-17T11:17:18.098Z,68.68
2022-10-17T11:18:55.282Z,68.75
2022-10-17T11:20:34.744Z,68.78
2022-10-17T11:22:12.627Z,68.98
2022-10-17T11:23:47.479Z,69.16
2022-10-17T11:25:32.110Z,68.93
2022-10-17T11:27:05.996Z,69.10
2022-10-17T11:28:37.786Z,69.36
2022-10-17T11:30:13.802Z,69.49
2022-10-17T11:31:52.417Z,69.75
2022-10-17T11:33:29.667Z,69.72
2022-10-17T11:35:06.373Z,69.83
2022-10-17T11:36:43.598Z,69.84
2022-10-17T11:38:22.530Z,69.81
2022-10-17T11:39:58.150Z,69.89
2022-10-17T11:41:35.346Z,69.90
2022-10-17T11:43:13.124Z,69.77
2022-10-17T11:44:44.875Z,69.51
2022-10-17T11:46:21.424Z,69.79
2022-10-17T11:48:01.199Z,69.45
2022-10-17T11:49:40.259Z,69.62
2022-10-17T11:53:11.811Z,69.54
2022-10-17T11:54:49.002Z,69.74
2022-10-17T11:56:32.265Z,69.68
2022-10-17T11:58:23.063Z,69.68
2022-10-17T12:00:12.047Z,69.67
2022-10-17T12:01:49.243Z,69.92
2022-10-17T12:03:36.226Z,69.94
2022-10-17T12:05:20.150Z,70.31
2022-10-17T12:07:09.303Z,70.36
2022-10-17T12:08:50.572Z,70.47
2022-10-17T12:10:34.045Z,70.48
2022-10-17T12:12:05.769Z,70.62
2022-10-17T12:13:49.301Z,70.55
2022-10-17T12:15:29.159Z,70.85
2022-10-17T12:17:01.644Z,70.97
2022-10-17T12:18:34.800Z,70.89
2022-10-17T12:20:34.889Z,71.11
2022-10-17T12:22:21.740Z,71.15
2022-10-17T12:23:55.121Z,71.30
2022-10-17T12:25:33.435Z,71.28
2022-10-17T12:27:39.835Z,71.34
2022-10-17T12:29:27.236Z,71.11
2022-10-17T12:31:01.732Z,71.43
2022-10-17T12:32:46.895Z,71.49
2022-10-17T12:34:26.860Z,71.54
2022-10-17T12:36:46.373Z,71.58
2022-10-17T12:38:26.775Z,71.73
2022-10-17T12:39:58.404Z,71.75
2022-10-17T12:41:53.424Z,71.65
2022-10-17T12:43:46.844Z,71.08
2022-10-17T12:45:48.526Z,70.66
2022-10-17T12:47:38.971Z,70.41
2022-10-17T12:49:22.282Z,70.53
2022-10-17T12:51:30.654Z,70.52
2022-10-17T12:53:05.948Z,70.49
2022-10-17T12:54:47.681Z,70.57
2022-10-17T12:56:34.158Z,70.44
2022-10-17T12:58:12.794Z,70.46
2022-10-17T12:59:45.188Z,70.58
2022-10-17T13:01:24.495Z,70.49
2022-10-17T13:03:02.073Z,70.67
2022-10-17T13:04:36.661Z,70.75
2022-10-17T13:06:19.526Z,70.50
2022-10-17T13:07:53.123Z,70.57
2022-10-17T13:09:28.948Z,70.74
2022-10-17T13:11:02.215Z,70.57
2022-10-17T13:12:41.226Z,70.36
2022-10-17T13:14:15.215Z,69.97
2022-10-17T13:15:47.970Z,69.63
2022-10-17T13:17:25.801Z,69.70
2022-10-17T13:18:57.504Z,69.56
2022-10-17T13:20:31.881Z,69.31
2022-10-17T13:22:19.453Z,68.79
2022-10-17T13:23:53.057Z,69.07
2022-10-17T13:25:26.997Z,69.17
2022-10-17T13:26:59.264Z,68.74
2022-10-17T13:28:32.413Z,68.61
2022-10-17T13:30:24.771Z,68.21
2022-10-17T13:32:01.402Z,68.27
2022-10-17T13:33:35.803Z,68.36
2022-10-17T13:35:10.709Z,68.33
2022-10-17T13:36:48.528Z,68.41
2022-10-17T13:38:25.980Z,68.26
2022-10-17T13:40:02.926Z,68.26
2022-10-17T13:41:39.714Z,68.22
2022-10-17T13:43:16.325Z,68.06
2022-10-17T13:44:48.253Z,68.04
2022-10-17T13:46:37.545Z,67.79
2022-10-17T13:48:19.965Z,67.59
2022-10-17T13:49:55.239Z,67.55
2022-10-17T13:51:27.837Z,67.17
2022-10-17T13:53:07.896Z,67.30
2022-10-17T13:54:42.457Z,67.20
2022-10-17T13:56:29.679Z,66.89
2022-10-17T13:58:16.241Z,66.58
2022-10-17T13:59:50.409Z,66.69
2022-10-17T14:01:22.739Z,66.58
2022-10-17T14:02:54.460Z,66.26
2022-10-17T14:04:26.272Z,66.36
2022-10-17T14:06:14.046Z,65.99
2022-10-17T14:08:10.483Z,66.17
2022-10-17T14:09:46.652Z,65.59
2022-10-17T14:11:29.079Z,65.78
2022-10-17T14:13:01.728Z,65.96
2022-10-17T14:14:51.652Z,65.83
2022-10-17T14:16:33.972Z,65.77
2022-10-17T14:18:08.422Z,65.78
2022-10-17T14:19:40.292Z,65.67
2022-10-17T14:21:37.144Z,65.70
2022-10-17T14:23:29.444Z,66.19
2022-10-17T14:25:03.692Z,65.96
2022-10-17T14:26:47.048Z,65.81
2022-10-17T14:28:22.591Z,66.21
2022-10-17T14:30:00.580Z,65.98
2022-10-17T14:31:34.030Z,65.92
2022-10-17T14:33:08.511Z,66.19
2022-10-17T14:34:40.830Z,66.06
2022-10-17T14:36:13.542Z,65.90
2022-10-17T14:37:47.723Z,65.84
2022-10-17T14:39:22.628Z,65.78
2022-10-17T14:41:20.932Z,65.76
2022-10-17T14:42:55.101Z,65.84
2022-10-17T14:44:30.301Z,65.90
2022-10-17T14:46:02.643Z,65.48
2022-10-17T14:47:50.247Z,65.45
2022-10-17T14:49:28.427Z,65.65
2022-10-17T14:51:08.412Z,65.59
2022-10-17T14:52:40.772Z,65.35
2022-10-17T14:54:24.523Z,65.63
2022-10-17T14:55:59.294Z,65.76
2022-10-17T14:57:44.147Z,65.95
2022-10-17T14:59:30.178Z,66.34
2022-10-17T15:01:09.513Z,66.78
2022-10-17T15:02:41.450Z,67.12
2022-10-17T15:04:13.084Z,67.65
2022-10-17T15:05:44.752Z,67.85
2022-10-17T15:07:17.610Z,68.28
2022-10-17T15:08:49.331Z,68.46
2022-10-17T15:10:30.662Z,68.83
2022-10-17T15:12:06.949Z,69.09
2022-10-17T15:13:43.290Z,69.14
2022-10-17T15:15:17.122Z,69.47
2022-10-17T15:16:48.775Z,69.90
2022-10-17T15:18:20.428Z,70.44
2022-10-17T15:19:52.170Z,70.89
2022-10-17T15:21:37.587Z,71.18
2022-10-17T15:23:12.398Z,71.13
2022-10-17T15:24:46.102Z,71.30
2022-10-17T15:26:20.074Z,71.17
2022-10-17T15:27:53.708Z,71.22
2022-10-17T15:29:25.719Z,71.25
2022-10-17T15:30:57.377Z,71.34
2022-10-17T15:32:29.031Z,71.58
2022-10-17T15:34:00.718Z,71.82
2022-10-17T15:35:32.430Z,71.84
2022-10-17T15:37:06.200Z,72.04
2022-10-17T15:38:37.892Z,72.07
2022-10-17T15:40:14.558Z,72.09
2022-10-17T15:41:47.978Z,72.10
2022-10-17T15:43:21.039Z,72.34
2022-10-17T15:44:52.789Z,72.46
2022-10-17T15:46:26.850Z,72.43
2022-10-17T15:48:04.182Z,72.53
2022-10-17T15:49:35.836Z,72.62
2022-10-17T15:51:07.971Z,72.58
2022-10-17T15:52:39.624Z,72.74
2022-10-17T15:55:50.878Z,72.86
2022-10-17T15:57:26.200Z,72.86
2022-10-17T15:59:02.158Z,73.17
2022-10-17T16:00:33.827Z,73.27
2022-10-17T16:02:12.579Z,73.28
2022-10-17T16:03:47.279Z,73.78
2022-10-17T16:05:25.482Z,73.88
2022-10-17T16:06:58.511Z,74.20
2022-10-17T16:08:30.186Z,74.07
2022-10-17T16:10:01.832Z,74.42
2022-10-17T16:11:36.213Z,74.34
2022-10-17T16:13:15.164Z,74.67
2022-10-17T16:14:48.213Z,75.01
2022-10-17T16:16:22.117Z,75.09
2022-10-17T16:17:56.924Z,75.29
2022-10-17T16:19:29.944Z,75.63
2022-10-17T16:21:01.712Z,75.73
2022-10-17T16:22:36.620Z,76.08
2022-10-17T16:24:10.315Z,76.36
2022-10-17T16:25:42.166Z,76.58
2022-10-17T16:27:13.905Z,77.07
2022-10-17T16:28:46.263Z,77.34
2022-10-17T16:31:57.005Z,77.66
2022-10-17T16:33:28.764Z,77.80
2022-10-17T16:35:00.536Z,77.93
2022-10-17T16:36:32.758Z,77.93
2022-10-17T16:38:04.663Z,78.19
2022-10-17T16:39:36.337Z,78.23
2022-10-17T16:41:18.897Z,78.45
2022-10-17T16:42:50.944Z,78.62
2022-10-17T16:44:22.687Z,78.87
2022-10-17T16:45:55.702Z,79.02
2022-10-17T16:47:27.327Z,79.17
2022-10-17T16:48:59.567Z,79.85
2022-10-17T16:50:35.293Z,80.00
2022-10-17T16:52:07.003Z,79.67
2022-10-17T16:53:44.831Z,79.84
2022-10-17T16:55:18.905Z,79.87
2022-10-17T16:56:50.618Z,79.59
2022-10-17T16:58:24.292Z,79.23
2022-10-17T16:59:56.006Z,78.58
2022-10-17T17:01:32.041Z,78.23
2022-10-17T17:03:04.443Z,77.69
2022-10-17T17:04:36.240Z,77.56
2022-10-17T17:06:09.387Z,77.22
2022-10-17T17:07:41.419Z,77.47
2022-10-17T17:09:13.540Z,77.62
2022-10-17T17:10:45.834Z,77.86
2022-10-17T17:12:17.501Z,78.25
2022-10-17T17:13:49.764Z,78.26
2022-10-17T17:15:21.461Z,78.72
2022-10-17T17:16:54.519Z,78.65
2022-10-17T17:18:26.193Z,78.85
2022-10-17T17:19:57.859Z,78.92
2022-10-17T17:21:29.580Z,79.00
2022-10-17T17:23:01.281Z,78.97
2022-10-17T17:24:32.979Z,79.02
2022-10-17T17:26:06.815Z,79.27
2022-10-17T17:27:38.497Z,79.44
2022-10-17T17:29:12.141Z,79.46
2022-10-17T17:30:43.779Z,79.89
2022-10-17T17:32:16.868Z,80.08
2022-10-17T17:33:49.356Z,80.06
2022-10-17T17:35:21.908Z,80.42
2022-10-17T17:36:53.621Z,80.45
2022-10-17T17:38:25.515Z,80.69
2022-10-17T17:39:57.158Z,80.71
2022-10-17T17:41:29.214Z,80.69
2022-10-17T17:44:37.588Z,80.52
2022-10-17T17:46:10.101Z,80.00
2022-10-17T17:47:43.124Z,80.19
2022-10-17T17:49:14.889Z,79.56
2022-10-17T17:50:46.990Z,79.37
2022-10-17T17:52:18.683Z,78.50
2022-10-17T17:53:52.399Z,77.92
2022-10-17T17:55:24.313Z,77.31
2022-10-17T17:56:56.009Z,77.15
2022-10-17T17:58:30.604Z,76.82
2022-10-17T18:00:07.574Z,76.45
2022-10-17T18:01:39.679Z,76.86
2022-10-17T18:03:12.969Z,76.67
2022-10-17T18:04:44.657Z,76.84
2022-10-17T18:06:17.056Z,76.62
2022-10-17T18:07:48.862Z,76.25
2022-10-17T18:09:21.365Z,75.95
2022-10-17T18:10:56.342Z,75.69
2022-10-17T18:12:29.041Z,75.26
2022-10-17T18:14:02.668Z,75.27
2022-10-17T18:15:34.366Z,75.22
2022-10-17T18:17:06.129Z,75.08
2022-10-17T18:18:40.384Z,74.89
2022-10-17T18:20:12.409Z,74.79
2022-10-17T18:21:44.355Z,74.78
2022-10-17T18:23:17.701Z,74.39
2022-10-17T18:24:49.718Z,74.30
2022-10-17T18:26:21.446Z,74.25
2022-10-17T18:27:53.062Z,74.29
2022-10-17T18:29:24.880Z,74.27
2022-10-17T18:30:58.138Z,74.19
2022-10-17T18:32:30.515Z,74.69
2022-10-17T18:34:05.136Z,74.60
2022-10-17T18:35:36.777Z,74.56
2022-10-17T18:37:09.289Z,74.46
2022-10-17T18:38:41.887Z,74.57
2022-10-17T18:40:13.575Z,74.90
2022-10-17T18:41:45.336Z,75.08
2022-10-17T18:43:17.050Z,75.44
2022-10-17T18:44:49.777Z,75.80
2022-10-17T18:46:23.392Z,76.04
2022-10-17T18:47:55.033Z,76.36
2022-10-17T18:49:28.225Z,76.59
2022-10-17T18:51:00.096Z,76.73
2022-10-17T18:52:31.876Z,76.91
2022-10-17T18:54:04.024Z,76.92
2022-10-17T18:55:39.042Z,77.09
2022-10-17T18:57:10.785Z,77.07
2022-10-17T18:58:43.243Z,77.05
2022-10-17T19:00:15.560Z,77.01
2022-10-17T19:01:47.613Z,77.23
2022-10-17T19:03:19.433Z,77.26
2022-10-17T19:04:52.564Z,77.08
2022-10-17T19:06:28.033Z,77.05
2022-10-17T19:07:59.629Z,77.11
2022-10-17T19:09:31.619Z,76.93
2022-10-17T19:11:05.829Z,76.81
2022-10-17T19:12:37.457Z,76.82
2022-10-17T19:14:13.980Z,76.87
2022-10-17T19:15:45.870Z,77.17
2022-10-17T19:17:17.489Z,76.68
2022-10-17T19:18:50.301Z,76.76
2022-10-17T19:20:23.374Z,76.80
2022-10-17T19:21:55.813Z,76.82
2022-10-17T19:23:27.570Z,76.79
2022-10-17T19:24:59.230Z,76.52
2022-10-17T19:26:33.208Z,76.46
2022-10-17T19:28:05.143Z,76.61
2022-10-17T19:29:36.821Z,76.71
2022-10-17T19:31:09.078Z,76.57
2022-10-17T19:32:41.257Z,77.07
2022-10-17T19:34:14.747Z,76.95
2022-10-17T19:35:55.240Z,77.05
2022-10-17T19:37:26.976Z,77.30
2022-10-17T19:38:58.925Z,77.43
2022-10-17T19:40:30.602Z,77.47
2022-10-17T19:42:06.049Z,77.24
2022-10-17T19:43:40.115Z,77.22
2022-10-17T19:45:11.804Z,76.90
2022-10-17T19:46:48.981Z,76.98
2022-10-17T19:48:20.647Z,76.99
2022-10-17T19:49:52.308Z,77.05
2022-10-17T19:51:26.309Z,77.36
2022-10-17T19:52:58.121Z,77.19
2022-10-17T19:54:29.934Z,76.84
2022-10-17T19:56:01.803Z,76.80
2022-10-17T19:57:36.185Z,76.88
2022-10-17T19:59:08.406Z,77.27
2022-10-17T20:00:46.559Z,77.01
2022-10-17T20:02:18.248Z,77.16
2022-10-17T20:03:50.214Z,77.23
2022-10-17T20:05:25.914Z,77.12
2022-10-17T20:07:00.363Z,77.04
2022-10-17T20:08:32.462Z,76.94
2022-10-17T20:10:04.774Z,77.06
2022-10-17T20:11:36.519Z,77.17
2022-10-17T20:13:08.681Z,77.15
2022-10-17T20:14:41.225Z,77.22
2022-10-17T20:16:14.782Z,77.73
2022-10-17T20:17:46.483Z,77.83
2022-10-17T20:19:19.480Z,77.96
2022-10-17T20:20:51.445Z,78.11
2022-10-17T20:22:24.608Z,78.52
2022-10-17T20:23:58.393Z,78.67
2022-10-17T20:25:30.101Z,78.58
2022-10-17T20:27:01.774Z,78.71
2022-10-17T20:28:33.911Z,78.89
2022-10-17T20:30:06.706Z,78.97
2022-10-17T20:31:39.371Z,79.02
2022-10-17T20:33:13.744Z,79.15
2022-10-17T20:34:45.462Z,78.94
2022-10-17T20:36:20.105Z,79.14
2022-10-17T20:37:53.172Z,79.27
2022-10-17T20:39:24.876Z,79.16
2022-10-17T20:41:00.631Z,79.22
2022-10-17T20:42:32.888Z,79.54
2022-10-17T20:44:06.750Z,79.12